sensor_id;sensor_type;location;lat;lon;timestamp;P1;durP1;ratioP1;P2;durP2;ratioP2
37677;SDS011;23517;50.390;8.616;2023-03-01T00:01:42;16.02;;;9.27;;
37677;SDS011;23517;50.390;8.616;2023-03-01T00:04:09;11.88;;;8.10;;
37677;SDS011;23517;50.390;8.616;2023-03-01T00:06:36;14.90;;;8.35;;
37677;SDS011;23517;50.390;8.616;2023-03-01T00:09:03;18.67;;;10.15;;
37677;SDS011;23517;50.390;8.616;2023-03-01T00:11:31;12.50;;;8.68;;
37677;SDS011;23517;50.390;8.616;2023-03-01T00:13:59;15.68;;;9.68;;
37677;SDS011;23517;50.390;8.616;2023-03-01T00:16:31;15.65;;;9.13;;
37677;SDS011;23517;50.390;8.616;2023-03-01T00:19:05;14.30;;;9.77;;
37677;SDS011;23517;50.390;8.616;2023-03-01T00:21:33;14.15;;;9.70;;
37677;SDS011;23517;50.390;8.616;2023-03-01T00:24:01;18.58;;;9.77;;
37677;SDS011;23517;50.390;8.616;2023-03-01T00:26:29;14.13;;;9.00;;
37677;SDS011;23517;50.390;8.616;2023-03-01T00:28:57;13.02;;;8.20;;
37677;SDS011;23517;50.390;8.616;2023-03-01T00:31:25;17.67;;;9.52;;
37677;SDS011;23517;50.390;8.616;2023-03-01T00:33:58;16.63;;;8.95;;
37677;SDS011;23517;50.390;8.616;2023-03-01T00:36:29;17.33;;;9.80;;
37677;SDS011;23517;50.390;8.616;2023-03-01T00:39:00;14.27;;;8.95;;
37677;SDS011;23517;50.390;8.616;2023-03-01T00:41:27;16.45;;;9.05;;
37677;SDS011;23517;50.390;8.616;2023-03-01T00:43:54;16.50;;;9.35;;
37677;SDS011;23517;50.390;8.616;2023-03-01T00:46:23;12.73;;;8.63;;
37677;SDS011;23517;50.390;8.616;2023-03-01T00:48:53;16.80;;;10.10;;
37677;SDS011;23517;50.390;8.616;2023-03-01T00:51:24;16.33;;;10.20;;
37677;SDS011;23517;50.390;8.616;2023-03-01T00:53:54;15.90;;;9.98;;
37677;SDS011;23517;50.390;8.616;2023-03-01T00:56:25;15.70;;;9.40;;
37677;SDS011;23517;50.390;8.616;2023-03-01T00:58:52;14.18;;;9.68;;
37677;SDS011;23517;50.390;8.616;2023-03-01T01:01:20;15.82;;;9.70;;
37677;SDS011;23517;50.390;8.616;2023-03-01T01:03:54;16.33;;;9.52;;
37677;SDS011;23517;50.390;8.616;2023-03-01T01:06:25;14.70;;;9.38;;
37677;SDS011;23517;50.390;8.616;2023-03-01T01:08:56;13.65;;;9.18;;
37677;SDS011;23517;50.390;8.616;2023-03-01T01:11:24;15.48;;;9.38;;
37677;SDS011;23517;50.390;8.616;2023-03-01T01:13:54;16.55;;;10.25;;
37677;SDS011;23517;50.390;8.616;2023-03-01T01:16:22;13.27;;;9.15;;
37677;SDS011;23517;50.390;8.616;2023-03-01T01:18:51;15.93;;;9.63;;
37677;SDS011;23517;50.390;8.616;2023-03-01T01:21:19;18.67;;;9.80;;
37677;SDS011;23517;50.390;8.616;2023-03-01T01:23:48;15.07;;;9.90;;
37677;SDS011;23517;50.390;8.616;2023-03-01T01:26:18;14.77;;;10.13;;
37677;SDS011;23517;50.390;8.616;2023-03-01T01:28:51;16.55;;;10.10;;
37677;SDS011;23517;50.390;8.616;2023-03-01T01:31:19;15.48;;;9.63;;
37677;SDS011;23517;50.390;8.616;2023-03-01T01:33:46;15.00;;;9.25;;
37677;SDS011;23517;50.390;8.616;2023-03-01T01:36:13;13.38;;;8.88;;
37677;SDS011;23517;50.390;8.616;2023-03-01T01:38:39;18.52;;;10.23;;
37677;SDS011;23517;50.390;8.616;2023-03-01T01:41:08;14.85;;;9.13;;
37677;SDS011;23517;50.390;8.616;2023-03-01T01:43:39;18.10;;;9.88;;
37677;SDS011;23517;50.390;8.616;2023-03-01T01:46:25;21.17;;;10.20;;
37677;SDS011;23517;50.390;8.616;2023-03-01T01:48:59;20.15;;;10.50;;
37677;SDS011;23517;50.390;8.616;2023-03-01T01:51:32;17.77;;;10.52;;
37677;SDS011;23517;50.390;8.616;2023-03-01T01:54:08;15.23;;;10.10;;
37677;SDS011;23517;50.390;8.616;2023-03-01T01:56:41;16.88;;;9.98;;
37677;SDS011;23517;50.390;8.616;2023-03-01T01:59:14;18.02;;;11.07;;
37677;SDS011;23517;50.390;8.616;2023-03-01T02:01:41;15.80;;;10.35;;
37677;SDS011;23517;50.390;8.616;2023-03-01T02:04:09;17.92;;;10.10;;
37677;SDS011;23517;50.390;8.616;2023-03-01T02:06:38;19.75;;;10.70;;
37677;SDS011;23517;50.390;8.616;2023-03-01T02:09:13;15.27;;;10.13;;
37677;SDS011;23517;50.390;8.616;2023-03-01T02:11:41;19.02;;;10.77;;
37677;SDS011;23517;50.390;8.616;2023-03-01T02:14:10;16.83;;;10.40;;
37677;SDS011;23517;50.390;8.616;2023-03-01T02:16:37;18.88;;;11.05;;
37677;SDS011;23517;50.390;8.616;2023-03-01T02:19:03;16.02;;;10.15;;
37677;SDS011;23517;50.390;8.616;2023-03-01T02:21:37;17.08;;;10.73;;
37677;SDS011;23517;50.390;8.616;2023-03-01T02:27:01;20.95;;;11.27;;
37677;SDS011;23517;50.390;8.616;2023-03-01T02:29:27;16.13;;;10.60;;
37677;SDS011;23517;50.390;8.616;2023-03-01T02:31:55;19.33;;;10.55;;
37677;SDS011;23517;50.390;8.616;2023-03-01T02:34:25;15.82;;;10.55;;
37677;SDS011;23517;50.390;8.616;2023-03-01T02:39:30;14.85;;;9.98;;
37677;SDS011;23517;50.390;8.616;2023-03-01T02:42:02;17.40;;;10.02;;
37677;SDS011;23517;50.390;8.616;2023-03-01T02:44:33;17.95;;;10.60;;
37677;SDS011;23517;50.390;8.616;2023-03-01T02:47:00;18.13;;;10.68;;
37677;SDS011;23517;50.390;8.616;2023-03-01T02:49:30;15.57;;;10.10;;
37677;SDS011;23517;50.390;8.616;2023-03-01T02:55:00;21.52;;;10.82;;
37677;SDS011;23517;50.390;8.616;2023-03-01T02:57:38;22.98;;;12.20;;
37677;SDS011;23517;50.390;8.616;2023-03-01T03:00:15;17.65;;;10.70;;
37677;SDS011;23517;50.390;8.616;2023-03-01T03:02:48;15.27;;;9.85;;
37677;SDS011;23517;50.390;8.616;2023-03-01T03:05:19;17.83;;;10.40;;
37677;SDS011;23517;50.390;8.616;2023-03-01T03:07:53;18.17;;;10.23;;
37677;SDS011;23517;50.390;8.616;2023-03-01T03:10:23;17.63;;;10.32;;
37677;SDS011;23517;50.390;8.616;2023-03-01T03:12:57;15.10;;;10.23;;
37677;SDS011;23517;50.390;8.616;2023-03-01T03:15:31;20.17;;;11.85;;
37677;SDS011;23517;50.390;8.616;2023-03-01T03:18:02;18.85;;;10.95;;
37677;SDS011;23517;50.390;8.616;2023-03-01T03:20:32;19.88;;;10.73;;
37677;SDS011;23517;50.390;8.616;2023-03-01T03:22:59;16.55;;;10.65;;
37677;SDS011;23517;50.390;8.616;2023-03-01T03:25:26;16.40;;;11.10;;
37677;SDS011;23517;50.390;8.616;2023-03-01T03:27:55;20.00;;;10.82;;
37677;SDS011;23517;50.390;8.616;2023-03-01T03:30:28;18.20;;;11.20;;
37677;SDS011;23517;50.390;8.616;2023-03-01T03:32:57;26.80;;;11.65;;
37677;SDS011;23517;50.390;8.616;2023-03-01T03:35:29;18.00;;;11.15;;
37677;SDS011;23517;50.390;8.616;2023-03-01T03:38:00;18.35;;;10.95;;
37677;SDS011;23517;50.390;8.616;2023-03-01T03:40:31;17.45;;;11.00;;
37677;SDS011;23517;50.390;8.616;2023-03-01T03:43:07;22.27;;;11.52;;
37677;SDS011;23517;50.390;8.616;2023-03-01T03:45:37;19.05;;;11.05;;
37677;SDS011;23517;50.390;8.616;2023-03-01T03:48:06;16.70;;;10.73;;
37677;SDS011;23517;50.390;8.616;2023-03-01T03:50:38;17.63;;;11.10;;
37677;SDS011;23517;50.390;8.616;2023-03-01T03:53:09;20.55;;;11.40;;
37677;SDS011;23517;50.390;8.616;2023-03-01T03:55:37;16.80;;;10.82;;
37677;SDS011;23517;50.390;8.616;2023-03-01T03:58:06;19.55;;;11.00;;
37677;SDS011;23517;50.390;8.616;2023-03-01T04:03:07;19.25;;;10.75;;
37677;SDS011;23517;50.390;8.616;2023-03-01T04:05:35;19.13;;;10.85;;
37677;SDS011;23517;50.390;8.616;2023-03-01T04:08:03;20.17;;;11.55;;
37677;SDS011;23517;50.390;8.616;2023-03-01T04:10:34;17.13;;;10.52;;
37677;SDS011;23517;50.390;8.616;2023-03-01T04:13:06;17.67;;;10.75;;
37677;SDS011;23517;50.390;8.616;2023-03-01T04:15:36;18.95;;;10.85;;
37677;SDS011;23517;50.390;8.616;2023-03-01T04:18:04;16.10;;;10.30;;
37677;SDS011;23517;50.390;8.616;2023-03-01T04:20:32;18.10;;;10.48;;
37677;SDS011;23517;50.390;8.616;2023-03-01T04:23:02;19.13;;;10.60;;
37677;SDS011;23517;50.390;8.616;2023-03-01T04:28:35;18.27;;;11.27;;
37677;SDS011;23517;50.390;8.616;2023-03-01T04:31:15;16.80;;;10.57;;
37677;SDS011;23517;50.390;8.616;2023-03-01T04:33:55;21.27;;;10.88;;
37677;SDS011;23517;50.390;8.616;2023-03-01T04:36:23;19.42;;;11.00;;
37677;SDS011;23517;50.390;8.616;2023-03-01T04:38:53;19.05;;;10.48;;
37677;SDS011;23517;50.390;8.616;2023-03-01T04:41:22;18.38;;;10.88;;
37677;SDS011;23517;50.390;8.616;2023-03-01T04:43:50;18.20;;;11.38;;
37677;SDS011;23517;50.390;8.616;2023-03-01T04:46:17;22.38;;;11.18;;
37677;SDS011;23517;50.390;8.616;2023-03-01T04:48:46;18.88;;;11.32;;
37677;SDS011;23517;50.390;8.616;2023-03-01T04:51:13;16.60;;;10.55;;
37677;SDS011;23517;50.390;8.616;2023-03-01T04:53:41;20.23;;;10.60;;
37677;SDS011;23517;50.390;8.616;2023-03-01T04:56:10;17.40;;;10.65;;
37677;SDS011;23517;50.390;8.616;2023-03-01T04:58:39;17.95;;;10.43;;
37677;SDS011;23517;50.390;8.616;2023-03-01T05:01:12;17.20;;;10.80;;
37677;SDS011;23517;50.390;8.616;2023-03-01T05:03:45;19.58;;;11.75;;
37677;SDS011;23517;50.390;8.616;2023-03-01T05:06:17;25.70;;;12.75;;
37677;SDS011;23517;50.390;8.616;2023-03-01T05:08:47;35.95;;;18.73;;
37677;SDS011;23517;50.390;8.616;2023-03-01T05:11:15;28.98;;;16.63;;
37677;SDS011;23517;50.390;8.616;2023-03-01T05:13:42;25.15;;;15.40;;
37677;SDS011;23517;50.390;8.616;2023-03-01T05:16:14;25.27;;;14.23;;
37677;SDS011;23517;50.390;8.616;2023-03-01T05:18:42;22.75;;;12.48;;
37677;SDS011;23517;50.390;8.616;2023-03-01T05:21:11;23.05;;;13.52;;
37677;SDS011;23517;50.390;8.616;2023-03-01T05:23:42;23.85;;;12.30;;
37677;SDS011;23517;50.390;8.616;2023-03-01T05:26:09;20.10;;;11.60;;
37677;SDS011;23517;50.390;8.616;2023-03-01T05:28:52;21.73;;;11.50;;
37677;SDS011;23517;50.390;8.616;2023-03-01T05:31:22;19.30;;;11.23;;
37677;SDS011;23517;50.390;8.616;2023-03-01T05:33:51;17.75;;;11.10;;
37677;SDS011;23517;50.390;8.616;2023-03-01T05:36:18;22.83;;;10.85;;
37677;SDS011;23517;50.390;8.616;2023-03-01T05:38:45;20.98;;;11.43;;
37677;SDS011;23517;50.390;8.616;2023-03-01T05:41:14;18.50;;;11.05;;
37677;SDS011;23517;50.390;8.616;2023-03-01T05:43:42;18.88;;;11.27;;
37677;SDS011;23517;50.390;8.616;2023-03-01T05:46:10;21.00;;;10.98;;
37677;SDS011;23517;50.390;8.616;2023-03-01T05:48:39;18.35;;;11.05;;
37677;SDS011;23517;50.390;8.616;2023-03-01T05:51:06;18.70;;;10.68;;
37677;SDS011;23517;50.390;8.616;2023-03-01T05:53:32;20.13;;;10.35;;
37677;SDS011;23517;50.390;8.616;2023-03-01T05:55:59;20.38;;;10.70;;
37677;SDS011;23517;50.390;8.616;2023-03-01T05:58:26;19.88;;;10.38;;
37677;SDS011;23517;50.390;8.616;2023-03-01T06:00:53;18.05;;;10.63;;
37677;SDS011;23517;50.390;8.616;2023-03-01T06:03:22;18.92;;;11.20;;
37677;SDS011;23517;50.390;8.616;2023-03-01T06:05:48;21.63;;;11.50;;
37677;SDS011;23517;50.390;8.616;2023-03-01T06:08:15;15.80;;;10.50;;
37677;SDS011;23517;50.390;8.616;2023-03-01T06:10:42;16.52;;;10.80;;
37677;SDS011;23517;50.390;8.616;2023-03-01T06:13:18;18.83;;;11.77;;
37677;SDS011;23517;50.390;8.616;2023-03-01T06:15:45;18.40;;;10.80;;
37677;SDS011;23517;50.390;8.616;2023-03-01T06:18:11;19.15;;;11.30;;
37677;SDS011;23517;50.390;8.616;2023-03-01T06:20:38;22.10;;;11.70;;
37677;SDS011;23517;50.390;8.616;2023-03-01T06:23:06;20.13;;;11.32;;
37677;SDS011;23517;50.390;8.616;2023-03-01T06:25:34;19.73;;;11.95;;
37677;SDS011;23517;50.390;8.616;2023-03-01T06:28:01;17.60;;;10.90;;
37677;SDS011;23517;50.390;8.616;2023-03-01T06:30:28;21.90;;;12.60;;
37677;SDS011;23517;50.390;8.616;2023-03-01T06:32:55;21.20;;;12.30;;
37677;SDS011;23517;50.390;8.616;2023-03-01T06:35:26;19.52;;;11.55;;
37677;SDS011;23517;50.390;8.616;2023-03-01T06:37:55;24.70;;;11.85;;
37677;SDS011;23517;50.390;8.616;2023-03-01T06:40:23;26.13;;;13.90;;
37677;SDS011;23517;50.390;8.616;2023-03-01T06:42:50;24.83;;;14.00;;
37677;SDS011;23517;50.390;8.616;2023-03-01T06:45:17;20.67;;;12.82;;
37677;SDS011;23517;50.390;8.616;2023-03-01T06:47:45;18.90;;;11.38;;
37677;SDS011;23517;50.390;8.616;2023-03-01T06:50:12;29.02;;;12.55;;
37677;SDS011;23517;50.390;8.616;2023-03-01T06:52:40;21.95;;;12.30;;
37677;SDS011;23517;50.390;8.616;2023-03-01T06:55:10;20.15;;;12.65;;
37677;SDS011;23517;50.390;8.616;2023-03-01T06:57:39;24.50;;;12.48;;
37677;SDS011;23517;50.390;8.616;2023-03-01T07:00:06;21.55;;;13.50;;
37677;SDS011;23517;50.390;8.616;2023-03-01T07:02:34;22.13;;;12.10;;
37677;SDS011;23517;50.390;8.616;2023-03-01T07:05:03;25.70;;;14.10;;
37677;SDS011;23517;50.390;8.616;2023-03-01T07:07:32;24.30;;;13.60;;
37677;SDS011;23517;50.390;8.616;2023-03-01T07:09:59;21.52;;;13.95;;
37677;SDS011;23517;50.390;8.616;2023-03-01T07:12:25;19.08;;;12.40;;
37677;SDS011;23517;50.390;8.616;2023-03-01T07:14:52;23.58;;;13.48;;
37677;SDS011;23517;50.390;8.616;2023-03-01T07:17:19;19.02;;;11.30;;
37677;SDS011;23517;50.390;8.616;2023-03-01T07:19:46;22.63;;;12.60;;
37677;SDS011;23517;50.390;8.616;2023-03-01T07:22:12;22.85;;;12.98;;
37677;SDS011;23517;50.390;8.616;2023-03-01T07:24:40;18.98;;;11.40;;
37677;SDS011;23517;50.390;8.616;2023-03-01T07:27:07;17.67;;;11.13;;
37677;SDS011;23517;50.390;8.616;2023-03-01T07:29:34;31.25;;;14.07;;
37677;SDS011;23517;50.390;8.616;2023-03-01T07:32:03;20.38;;;11.88;;
37677;SDS011;23517;50.390;8.616;2023-03-01T07:34:31;22.60;;;12.85;;
37677;SDS011;23517;50.390;8.616;2023-03-01T07:36:57;22.98;;;12.55;;
37677;SDS011;23517;50.390;8.616;2023-03-01T07:39:24;19.33;;;11.88;;
37677;SDS011;23517;50.390;8.616;2023-03-01T07:41:56;20.27;;;11.55;;
37677;SDS011;23517;50.390;8.616;2023-03-01T07:44:22;29.95;;;13.82;;
37677;SDS011;23517;50.390;8.616;2023-03-01T07:46:49;22.45;;;13.20;;
37677;SDS011;23517;50.390;8.616;2023-03-01T07:49:18;26.48;;;13.05;;
37677;SDS011;23517;50.390;8.616;2023-03-01T07:51:44;25.73;;;14.25;;
37677;SDS011;23517;50.390;8.616;2023-03-01T07:54:11;24.33;;;13.68;;
37677;SDS011;23517;50.390;8.616;2023-03-01T07:56:47;21.52;;;12.77;;
37677;SDS011;23517;50.390;8.616;2023-03-01T07:59:14;24.92;;;14.38;;
37677;SDS011;23517;50.390;8.616;2023-03-01T08:01:41;26.30;;;14.07;;
37677;SDS011;23517;50.390;8.616;2023-03-01T08:04:12;22.05;;;13.15;;
37677;SDS011;23517;50.390;8.616;2023-03-01T08:06:39;20.98;;;12.07;;
37677;SDS011;23517;50.390;8.616;2023-03-01T08:09:06;20.23;;;12.38;;
37677;SDS011;23517;50.390;8.616;2023-03-01T08:11:33;21.83;;;12.95;;
37677;SDS011;23517;50.390;8.616;2023-03-01T08:14:00;20.67;;;12.90;;
37677;SDS011;23517;50.390;8.616;2023-03-01T08:16:27;20.20;;;12.18;;
37677;SDS011;23517;50.390;8.616;2023-03-01T08:18:54;18.45;;;11.98;;
37677;SDS011;23517;50.390;8.616;2023-03-01T08:21:22;18.77;;;12.63;;
37677;SDS011;23517;50.390;8.616;2023-03-01T08:23:49;20.95;;;12.73;;
37677;SDS011;23517;50.390;8.616;2023-03-01T08:26:16;19.45;;;11.40;;
37677;SDS011;23517;50.390;8.616;2023-03-01T08:28:47;17.85;;;11.45;;
37677;SDS011;23517;50.390;8.616;2023-03-01T08:31:25;20.38;;;10.73;;
37677;SDS011;23517;50.390;8.616;2023-03-01T08:34:03;18.73;;;10.95;;
37677;SDS011;23517;50.390;8.616;2023-03-01T08:36:37;18.13;;;11.77;;
37677;SDS011;23517;50.390;8.616;2023-03-01T08:39:07;17.05;;;10.85;;
37677;SDS011;23517;50.390;8.616;2023-03-01T08:41:36;18.30;;;10.63;;
37677;SDS011;23517;50.390;8.616;2023-03-01T08:44:04;18.80;;;11.93;;
37677;SDS011;23517;50.390;8.616;2023-03-01T08:46:32;16.30;;;9.75;;
37677;SDS011;23517;50.390;8.616;2023-03-01T08:49:07;13.82;;;9.27;;
37677;SDS011;23517;50.390;8.616;2023-03-01T08:51:42;15.43;;;9.55;;
37677;SDS011;23517;50.390;8.616;2023-03-01T08:54:12;20.38;;;11.73;;
37677;SDS011;23517;50.390;8.616;2023-03-01T08:56:44;16.00;;;10.45;;
37677;SDS011;23517;50.390;8.616;2023-03-01T08:59:12;14.70;;;10.50;;
37677;SDS011;23517;50.390;8.616;2023-03-01T09:01:41;13.73;;;9.43;;
37677;SDS011;23517;50.390;8.616;2023-03-01T09:04:11;14.80;;;9.30;;
37677;SDS011;23517;50.390;8.616;2023-03-01T09:06:38;11.40;;;8.43;;
37677;SDS011;23517;50.390;8.616;2023-03-01T09:09:05;12.88;;;8.77;;
37677;SDS011;23517;50.390;8.616;2023-03-01T09:11:41;13.32;;;9.07;;
37677;SDS011;23517;50.390;8.616;2023-03-01T09:14:09;17.25;;;9.43;;
37677;SDS011;23517;50.390;8.616;2023-03-01T09:16:37;20.73;;;12.90;;
37677;SDS011;23517;50.390;8.616;2023-03-01T09:19:04;15.10;;;10.80;;
37677;SDS011;23517;50.390;8.616;2023-03-01T09:21:30;14.15;;;9.80;;
37677;SDS011;23517;50.390;8.616;2023-03-01T09:24:06;13.57;;;9.00;;
37677;SDS011;23517;50.390;8.616;2023-03-01T09:26:39;14.18;;;10.25;;
37677;SDS011;23517;50.390;8.616;2023-03-01T09:29:06;13.57;;;10.20;;
37677;SDS011;23517;50.390;8.616;2023-03-01T09:31:32;14.57;;;10.18;;
37677;SDS011;23517;50.390;8.616;2023-03-01T09:33:59;17.48;;;10.73;;
37677;SDS011;23517;50.390;8.616;2023-03-01T09:36:26;15.60;;;10.10;;
37677;SDS011;23517;50.390;8.616;2023-03-01T09:38:52;14.73;;;10.52;;
37677;SDS011;23517;50.390;8.616;2023-03-01T09:41:34;19.83;;;10.57;;
37677;SDS011;23517;50.390;8.616;2023-03-01T09:47:21;16.38;;;10.07;;
37677;SDS011;23517;50.390;8.616;2023-03-01T09:49:54;16.17;;;9.60;;
37677;SDS011;23517;50.390;8.616;2023-03-01T09:55:29;19.77;;;9.45;;
37677;SDS011;23517;50.390;8.616;2023-03-01T09:58:08;14.43;;;8.88;;
37677;SDS011;23517;50.390;8.616;2023-03-01T10:09:50;16.08;;;10.48;;
37677;SDS011;23517;50.390;8.616;2023-03-01T10:12:17;18.65;;;10.77;;
37677;SDS011;23517;50.390;8.616;2023-03-01T10:14:57;17.60;;;10.98;;
37677;SDS011;23517;50.390;8.616;2023-03-01T10:17:50;18.80;;;9.88;;
37677;SDS011;23517;50.390;8.616;2023-03-01T10:20:44;16.50;;;9.52;;
37677;SDS011;23517;50.390;8.616;2023-03-01T10:23:28;15.80;;;9.82;;
37677;SDS011;23517;50.390;8.616;2023-03-01T10:29:00;16.00;;;9.65;;
37677;SDS011;23517;50.390;8.616;2023-03-01T10:31:47;14.10;;;9.35;;
37677;SDS011;23517;50.390;8.616;2023-03-01T10:34:27;15.68;;;8.90;;
37677;SDS011;23517;50.390;8.616;2023-03-01T10:37:01;14.43;;;8.95;;
37677;SDS011;23517;50.390;8.616;2023-03-01T10:39:37;16.73;;;9.93;;
37677;SDS011;23517;50.390;8.616;2023-03-01T10:42:32;17.60;;;9.48;;
37677;SDS011;23517;50.390;8.616;2023-03-01T10:48:20;16.10;;;8.93;;
37677;SDS011;23517;50.390;8.616;2023-03-01T10:56:13;19.15;;;11.73;;
37677;SDS011;23517;50.390;8.616;2023-03-01T10:58:56;19.05;;;10.30;;
37677;SDS011;23517;50.390;8.616;2023-03-01T11:01:26;15.38;;;9.60;;
37677;SDS011;23517;50.390;8.616;2023-03-01T11:06:31;14.48;;;8.88;;
37677;SDS011;23517;50.390;8.616;2023-03-01T11:09:14;18.50;;;8.55;;
37677;SDS011;23517;50.390;8.616;2023-03-01T11:11:57;15.88;;;9.10;;
37677;SDS011;23517;50.390;8.616;2023-03-01T11:14:31;18.73;;;9.98;;
37677;SDS011;23517;50.390;8.616;2023-03-01T11:17:17;16.88;;;9.63;;
37677;SDS011;23517;50.390;8.616;2023-03-01T11:22:49;14.45;;;9.02;;
37677;SDS011;23517;50.390;8.616;2023-03-01T11:25:23;13.43;;;9.40;;
37677;SDS011;23517;50.390;8.616;2023-03-01T11:27:59;13.85;;;8.68;;
37677;SDS011;23517;50.390;8.616;2023-03-01T11:30:34;14.45;;;8.63;;
37677;SDS011;23517;50.390;8.616;2023-03-01T11:33:20;11.80;;;7.85;;
37677;SDS011;23517;50.390;8.616;2023-03-01T11:42:03;17.27;;;8.85;;
37677;SDS011;23517;50.390;8.616;2023-03-01T11:44:44;14.38;;;8.52;;
37677;SDS011;23517;50.390;8.616;2023-03-01T11:47:19;13.23;;;8.80;;
37677;SDS011;23517;50.390;8.616;2023-03-01T11:49:55;13.18;;;8.90;;
37677;SDS011;23517;50.390;8.616;2023-03-01T11:53:09;12.40;;;8.98;;
37677;SDS011;23517;50.390;8.616;2023-03-01T12:08:13;15.88;;;8.40;;
37677;SDS011;23517;50.390;8.616;2023-03-01T12:11:03;13.27;;;7.22;;
37677;SDS011;23517;50.390;8.616;2023-03-01T12:19:52;13.40;;;7.97;;
37677;SDS011;23517;50.390;8.616;2023-03-01T12:32:02;12.55;;;7.38;;
37677;SDS011;23517;50.390;8.616;2023-03-01T12:37:45;16.35;;;6.97;;
37677;SDS011;23517;50.390;8.616;2023-03-01T12:41:05;11.52;;;7.15;;
37677;SDS011;23517;50.390;8.616;2023-03-01T12:47:07;14.73;;;8.55;;
37677;SDS011;23517;50.390;8.616;2023-03-01T12:49:49;9.05;;;6.70;;
37677;SDS011;23517;50.390;8.616;2023-03-01T12:52:27;11.85;;;7.53;;
37677;SDS011;23517;50.390;8.616;2023-03-01T12:55:07;10.25;;;7.47;;
37677;SDS011;23517;50.390;8.616;2023-03-01T12:58:21;13.05;;;7.22;;
37677;SDS011;23517;50.390;8.616;2023-03-01T13:07:44;14.35;;;7.43;;
37677;SDS011;23517;50.390;8.616;2023-03-01T13:10:25;15.45;;;8.52;;
37677;SDS011;23517;50.390;8.616;2023-03-01T13:13:01;13.77;;;8.30;;
37677;SDS011;23517;50.390;8.616;2023-03-01T13:15:49;12.98;;;7.05;;
37677;SDS011;23517;50.390;8.616;2023-03-01T13:20:51;15.07;;;8.27;;
37677;SDS011;23517;50.390;8.616;2023-03-01T13:31:04;11.15;;;6.90;;
37677;SDS011;23517;50.390;8.616;2023-03-01T13:33:40;11.73;;;7.30;;
37677;SDS011;23517;50.390;8.616;2023-03-01T13:38:56;12.30;;;6.47;;
37677;SDS011;23517;50.390;8.616;2023-03-01T13:49:45;11.30;;;6.30;;
37677;SDS011;23517;50.390;8.616;2023-03-01T13:57:53;10.30;;;6.68;;
37677;SDS011;23517;50.390;8.616;2023-03-01T14:00:34;12.80;;;6.78;;
37677;SDS011;23517;50.390;8.616;2023-03-01T14:03:05;11.82;;;7.45;;
37677;SDS011;23517;50.390;8.616;2023-03-01T14:05:57;11.32;;;7.30;;
37677;SDS011;23517;50.390;8.616;2023-03-01T14:08:42;11.18;;;6.40;;
37677;SDS011;23517;50.390;8.616;2023-03-01T14:11:20;11.32;;;6.50;;
37677;SDS011;23517;50.390;8.616;2023-03-01T14:14:37;11.90;;;6.47;;
37677;SDS011;23517;50.390;8.616;2023-03-01T14:20:26;11.95;;;7.03;;
37677;SDS011;23517;50.390;8.616;2023-03-01T14:22:58;13.63;;;7.00;;
37677;SDS011;23517;50.390;8.616;2023-03-01T14:25:29;10.70;;;6.18;;
37677;SDS011;23517;50.390;8.616;2023-03-01T14:28:00;10.88;;;6.70;;
37677;SDS011;23517;50.390;8.616;2023-03-01T14:30:46;10.88;;;6.63;;
37677;SDS011;23517;50.390;8.616;2023-03-01T14:35:56;11.40;;;6.75;;
37677;SDS011;23517;50.390;8.616;2023-03-01T14:38:31;13.85;;;7.55;;
37677;SDS011;23517;50.390;8.616;2023-03-01T14:41:18;14.05;;;8.00;;
37677;SDS011;23517;50.390;8.616;2023-03-01T14:46:34;12.55;;;7.20;;
37677;SDS011;23517;50.390;8.616;2023-03-01T14:49:11;11.07;;;7.00;;
37677;SDS011;23517;50.390;8.616;2023-03-01T14:51:44;11.82;;;7.20;;
37677;SDS011;23517;50.390;8.616;2023-03-01T14:54:20;11.23;;;6.80;;
37677;SDS011;23517;50.390;8.616;2023-03-01T14:57:12;12.70;;;6.85;;
37677;SDS011;23517;50.390;8.616;2023-03-01T14:59:51;10.85;;;6.50;;
37677;SDS011;23517;50.390;8.616;2023-03-01T15:02:26;12.63;;;7.30;;
37677;SDS011;23517;50.390;8.616;2023-03-01T15:04:55;13.27;;;7.22;;
37677;SDS011;23517;50.390;8.616;2023-03-01T15:07:29;11.20;;;6.25;;
37677;SDS011;23517;50.390;8.616;2023-03-01T15:10:05;11.15;;;6.43;;
37677;SDS011;23517;50.390;8.616;2023-03-01T15:12:43;12.43;;;7.22;;
37677;SDS011;23517;50.390;8.616;2023-03-01T15:15:30;12.30;;;6.93;;
37677;SDS011;23517;50.390;8.616;2023-03-01T15:18:03;11.32;;;6.88;;
37677;SDS011;23517;50.390;8.616;2023-03-01T15:20:40;9.80;;;6.45;;
37677;SDS011;23517;50.390;8.616;2023-03-01T15:23:12;8.52;;;5.95;;
37677;SDS011;23517;50.390;8.616;2023-03-01T15:25:54;9.57;;;6.68;;
37677;SDS011;23517;50.390;8.616;2023-03-01T15:28:26;11.55;;;6.15;;
37677;SDS011;23517;50.390;8.616;2023-03-01T15:31:39;10.52;;;6.18;;
37677;SDS011;23517;50.390;8.616;2023-03-01T15:33:51;9.68;;;5.50;;
37677;SDS011;23517;50.390;8.616;2023-03-01T15:39:34;9.82;;;6.13;;
37677;SDS011;23517;50.390;8.616;2023-03-01T15:42:10;9.93;;;6.15;;
37677;SDS011;23517;50.390;8.616;2023-03-01T15:45:10;10.50;;;6.40;;
37677;SDS011;23517;50.390;8.616;2023-03-01T15:47:50;10.52;;;6.30;;
37677;SDS011;23517;50.390;8.616;2023-03-01T15:50:27;11.00;;;6.25;;
37677;SDS011;23517;50.390;8.616;2023-03-01T15:53:06;10.18;;;5.80;;
37677;SDS011;23517;50.390;8.616;2023-03-01T15:55:37;10.63;;;6.03;;
37677;SDS011;23517;50.390;8.616;2023-03-01T16:00:45;11.52;;;5.90;;
37677;SDS011;23517;50.390;8.616;2023-03-01T16:03:26;12.80;;;5.72;;
37677;SDS011;23517;50.390;8.616;2023-03-01T16:05:53;12.20;;;6.18;;
37677;SDS011;23517;50.390;8.616;2023-03-01T16:08:19;10.27;;;5.68;;
37677;SDS011;23517;50.390;8.616;2023-03-01T16:10:46;7.70;;;5.30;;
37677;SDS011;23517;50.390;8.616;2023-03-01T16:13:15;11.88;;;6.10;;
37677;SDS011;23517;50.390;8.616;2023-03-01T16:15:43;9.45;;;5.60;;
37677;SDS011;23517;50.390;8.616;2023-03-01T16:18:09;9.27;;;6.18;;
37677;SDS011;23517;50.390;8.616;2023-03-01T16:20:42;17.42;;;6.40;;
37677;SDS011;23517;50.390;8.616;2023-03-01T16:23:10;9.07;;;5.78;;
37677;SDS011;23517;50.390;8.616;2023-03-01T16:25:37;16.88;;;7.70;;
37677;SDS011;23517;50.390;8.616;2023-03-01T16:28:05;18.17;;;8.68;;
37677;SDS011;23517;50.390;8.616;2023-03-01T16:30:37;17.75;;;8.57;;
37677;SDS011;23517;50.390;8.616;2023-03-01T16:33:05;25.98;;;10.02;;
37677;SDS011;23517;50.390;8.616;2023-03-01T16:35:50;33.28;;;14.02;;
37677;SDS011;23517;50.390;8.616;2023-03-01T16:38:16;19.48;;;9.65;;
37677;SDS011;23517;50.390;8.616;2023-03-01T16:40:46;28.33;;;11.13;;
37677;SDS011;23517;50.390;8.616;2023-03-01T16:43:15;29.30;;;13.27;;
37677;SDS011;23517;50.390;8.616;2023-03-01T16:45:42;61.15;;;24.00;;
37677;SDS011;23517;50.390;8.616;2023-03-01T16:48:10;32.28;;;13.18;;
37677;SDS011;23517;50.390;8.616;2023-03-01T16:50:38;18.23;;;8.60;;
37677;SDS011;23517;50.390;8.616;2023-03-01T16:53:05;13.88;;;6.25;;
37677;SDS011;23517;50.390;8.616;2023-03-01T16:55:32;20.88;;;10.20;;
37677;SDS011;23517;50.390;8.616;2023-03-01T16:57:59;13.70;;;7.95;;
37677;SDS011;23517;50.390;8.616;2023-03-01T17:00:27;12.65;;;7.05;;
37677;SDS011;23517;50.390;8.616;2023-03-01T17:02:54;20.85;;;8.75;;
37677;SDS011;23517;50.390;8.616;2023-03-01T17:05:21;17.48;;;8.65;;
37677;SDS011;23517;50.390;8.616;2023-03-01T17:07:49;46.53;;;17.30;;
37677;SDS011;23517;50.390;8.616;2023-03-01T17:10:17;16.13;;;8.30;;
37677;SDS011;23517;50.390;8.616;2023-03-01T17:12:47;15.52;;;7.43;;